sensor_id;sensor_type;location;lat;lon;timestamp;pressure;altitude;pressure_sealevel;temperature;humidity
75312;BME280;63906;55.686;37.532;2024-02-16T00:01:19;101187.91;;;-8.72;84.26
75312;BME280;63906;55.686;37.532;2024-02-16T00:06:20;101202.25;;;-8.66;84.87
75312;BME280;63906;55.686;37.532;2024-02-16T00:11:20;101188.41;;;-8.54;85.06
75312;BME280;63906;55.686;37.532;2024-02-16T00:16:21;101175.41;;;-8.85;85.05
75312;BME280;63906;55.686;37.532;2024-02-16T00:21:22;101142.44;;;-8.96;84.82
75312;BME280;63906;55.686;37.532;2024-02-16T00:26:22;101207.22;;;-8.58;85.07
75312;BME280;63906;55.686;37.532;2024-02-16T00:31:23;101181.88;;;-8.68;84.58
75312;BME280;63906;55.686;37.532;2024-02-16T00:36:26;101183.72;;;-8.74;85.00
75312;BME280;63906;55.686;37.532;2024-02-16T00:41:26;101165.25;;;-8.87;84.69
75312;BME280;63906;55.686;37.532;2024-02-16T00:46:27;101164.28;;;-8.83;85.11
75312;BME280;63906;55.686;37.532;2024-02-16T00:51:27;101188.50;;;-8.59;84.94
75312;BME280;63906;55.686;37.532;2024-02-16T00:56:30;101164.53;;;-8.95;84.47
75312;BME280;63906;55.686;37.532;2024-02-16T01:01:31;101179.59;;;-8.83;85.27
75312;BME280;63906;55.686;37.532;2024-02-16T01:06:31;101180.66;;;-8.93;84.76
75312;BME280;63906;55.686;37.532;2024-02-16T01:11:32;101142.16;;;-9.27;84.73
75312;BME280;63906;55.686;37.532;2024-02-16T01:16:32;101193.19;;;-8.81;85.10
75312;BME280;63906;55.686;37.532;2024-02-16T01:21:33;101185.66;;;-8.87;85.18
75312;BME280;63906;55.686;37.532;2024-02-16T01:26:34;101190.28;;;-8.62;85.15
75312;BME280;63906;55.686;37.532;2024-02-16T01:31:34;101198.56;;;-8.51;85.20
75312;BME280;63906;55.686;37.532;2024-02-16T01:36:36;101180.97;;;-8.65;84.86
75312;BME280;63906;55.686;37.532;2024-02-16T01:41:40;101128.94;;;-9.01;84.93
75312;BME280;63906;55.686;37.532;2024-02-16T01:46:40;101189.47;;;-8.64;84.29
75312;BME280;63906;55.686;37.532;2024-02-16T01:51:42;101200.47;;;-8.61;84.85
75312;BME280;63906;55.686;37.532;2024-02-16T01:56:43;101189.22;;;-8.52;85.41
75312;BME280;63906;55.686;37.532;2024-02-16T02:01:44;101184.19;;;-8.55;84.83
75312;BME280;63906;55.686;37.532;2024-02-16T02:06:45;101160.59;;;-8.66;85.17
75312;BME280;63906;55.686;37.532;2024-02-16T02:11:45;101160.50;;;-8.62;85.22
75312;BME280;63906;55.686;37.532;2024-02-16T02:16:46;101078.88;;;-9.07;85.28
75312;BME280;63906;55.686;37.532;2024-02-16T02:21:46;101175.91;;;-8.66;85.13
75312;BME280;63906;55.686;37.532;2024-02-16T02:26:47;101177.16;;;-8.44;85.55
75312;BME280;63906;55.686;37.532;2024-02-16T02:31:47;101183.22;;;-8.51;85.57
75312;BME280;63906;55.686;37.532;2024-02-16T02:36:48;101162.56;;;-8.39;85.15
75312;BME280;63906;55.686;37.532;2024-02-16T02:41:49;101095.63;;;-8.93;84.67
75312;BME280;63906;55.686;37.532;2024-02-16T02:46:49;101172.34;;;-8.59;84.97
75312;BME280;63906;55.686;37.532;2024-02-16T02:51:50;101159.31;;;-8.46;85.55
75312;BME280;63906;55.686;37.532;2024-02-16T02:56:50;101129.41;;;-8.81;85.00
75312;BME280;63906;55.686;37.532;2024-02-16T03:01:51;101202.03;;;-8.54;85.27
75312;BME280;63906;55.686;37.532;2024-02-16T03:06:52;101180.94;;;-8.63;85.16
75312;BME280;63906;55.686;37.532;2024-02-16T03:11:52;101177.56;;;-8.65;85.41
75312;BME280;63906;55.686;37.532;2024-02-16T03:16:53;101198.78;;;-8.62;85.40
75312;BME280;63906;55.686;37.532;2024-02-16T03:21:53;101192.75;;;-8.59;85.43
75312;BME280;63906;55.686;37.532;2024-02-16T03:26:54;101191.94;;;-8.60;85.82
75312;BME280;63906;55.686;37.532;2024-02-16T03:31:54;101202.94;;;-8.56;85.54
75312;BME280;63906;55.686;37.532;2024-02-16T03:36:55;101223.22;;;-8.50;86.09
75312;BME280;63906;55.686;37.532;2024-02-16T03:41:56;101213.97;;;-8.56;85.86
75312;BME280;63906;55.686;37.532;2024-02-16T03:46:56;101139.88;;;-8.96;85.39
75312;BME280;63906;55.686;37.532;2024-02-16T03:51:57;101209.41;;;-8.40;85.85
75312;BME280;63906;55.686;37.532;2024-02-16T03:56:57;101191.81;;;-8.54;85.60
75312;BME280;63906;55.686;37.532;2024-02-16T04:01:58;101182.16;;;-8.39;86.01
75312;BME280;63906;55.686;37.532;2024-02-16T04:06:58;101177.16;;;-8.44;85.76
75312;BME280;63906;55.686;37.532;2024-02-16T04:11:59;101158.66;;;-8.55;85.83
75312;BME280;63906;55.686;37.532;2024-02-16T04:16:59;101162.72;;;-8.47;85.34
75312;BME280;63906;55.686;37.532;2024-02-16T04:22:00;101177.28;;;-8.52;85.91
75312;BME280;63906;55.686;37.532;2024-02-16T04:27:01;101165.38;;;-8.51;85.54
75312;BME280;63906;55.686;37.532;2024-02-16T04:32:01;101128.28;;;-8.68;85.70
75312;BME280;63906;55.686;37.532;2024-02-16T04:37:02;101161.44;;;-8.26;86.14
75312;BME280;63906;55.686;37.532;2024-02-16T04:42:02;101116.41;;;-8.70;85.71
75312;BME280;63906;55.686;37.532;2024-02-16T04:47:03;101136.94;;;-8.76;85.89
75312;BME280;63906;55.686;37.532;2024-02-16T04:52:04;101160.31;;;-8.53;85.50
75312;BME280;63906;55.686;37.532;2024-02-16T04:57:04;101164.06;;;-8.71;85.11
75312;BME280;63906;55.686;37.532;2024-02-16T05:02:05;101155.41;;;-8.63;85.52
75312;BME280;63906;55.686;37.532;2024-02-16T05:07:07;101134.22;;;-8.67;86.47
75312;BME280;63906;55.686;37.532;2024-02-16T05:12:08;101174.97;;;-8.62;84.94
75312;BME280;63906;55.686;37.532;2024-02-16T05:17:08;101178.91;;;-8.48;85.88
75312;BME280;63906;55.686;37.532;2024-02-16T05:22:09;101156.59;;;-8.38;86.01
75312;BME280;63906;55.686;37.532;2024-02-16T05:27:10;101136.63;;;-8.59;85.44
75312;BME280;63906;55.686;37.532;2024-02-16T05:32:11;101154.31;;;-8.50;86.06
75312;BME280;63906;55.686;37.532;2024-02-16T05:37:13;101177.28;;;-8.50;85.06
75312;BME280;63906;55.686;37.532;2024-02-16T05:42:15;101173.78;;;-8.46;85.39
75312;BME280;63906;55.686;37.532;2024-02-16T05:47:16;101204.81;;;-8.24;85.07
75312;BME280;63906;55.686;37.532;2024-02-16T05:52:17;101205.81;;;-8.33;84.19
75312;BME280;63906;55.686;37.532;2024-02-16T05:57:17;101201.25;;;-8.17;84.36
75312;BME280;63906;55.686;37.532;2024-02-16T06:02:18;101128.69;;;-8.47;83.92
75312;BME280;63906;55.686;37.532;2024-02-16T06:07:19;101191.59;;;-8.04;83.74
75312;BME280;63906;55.686;37.532;2024-02-16T06:12:19;101193.38;;;-8.08;83.71
75312;BME280;63906;55.686;37.532;2024-02-16T06:17:20;101186.41;;;-8.00;83.70
75312;BME280;63906;55.686;37.532;2024-02-16T06:22:21;101196.44;;;-7.92;83.62
75312;BME280;63906;55.686;37.532;2024-02-16T06:27:21;101215.00;;;-7.84;83.34
75312;BME280;63906;55.686;37.532;2024-02-16T06:32:22;101197.78;;;-7.76;84.09
75312;BME280;63906;55.686;37.532;2024-02-16T06:37:22;101205.97;;;-7.62;83.45
75312;BME280;63906;55.686;37.532;2024-02-16T06:42:23;101190.06;;;-7.74;82.50
75312;BME280;63906;55.686;37.532;2024-02-16T06:47:23;101191.56;;;-7.66;82.71
75312;BME280;63906;55.686;37.532;2024-02-16T06:52:26;101100.56;;;-8.08;81.65
75312;BME280;63906;55.686;37.532;2024-02-16T06:57:26;101172.94;;;-7.71;81.17
75312;BME280;63906;55.686;37.532;2024-02-16T07:02:27;101171.13;;;-7.66;81.31
75312;BME280;63906;55.686;37.532;2024-02-16T07:07:27;101222.47;;;-7.39;82.06
75312;BME280;63906;55.686;37.532;2024-02-16T07:12:28;101162.25;;;-7.51;82.57
75312;BME280;63906;55.686;37.532;2024-02-16T07:17:28;101204.91;;;-7.17;82.01
75312;BME280;63906;55.686;37.532;2024-02-16T07:22:30;101193.13;;;-7.24;81.33
75312;BME280;63906;55.686;37.532;2024-02-16T07:27:31;101198.16;;;-7.20;81.11
75312;BME280;63906;55.686;37.532;2024-02-16T07:32:31;101175.13;;;-7.21;81.63
75312;BME280;63906;55.686;37.532;2024-02-16T07:37:32;101191.31;;;-7.21;80.21
75312;BME280;63906;55.686;37.532;2024-02-16T07:42:32;101163.31;;;-7.60;80.73
75312;BME280;63906;55.686;37.532;2024-02-16T07:47:33;101185.91;;;-7.43;81.01
75312;BME280;63906;55.686;37.532;2024-02-16T07:52:33;101179.94;;;-7.08;82.50
75312;BME280;63906;55.686;37.532;2024-02-16T07:57:34;101202.09;;;-6.75;82.75
75312;BME280;63906;55.686;37.532;2024-02-16T08:02:35;101218.84;;;-6.96;80.94
75312;BME280;63906;55.686;37.532;2024-02-16T08:07:35;101203.75;;;-7.06;81.44
75312;BME280;63906;55.686;37.532;2024-02-16T08:12:36;101231.00;;;-7.05;80.94
75312;BME280;63906;55.686;37.532;2024-02-16T08:17:37;101203.00;;;-7.11;81.46
75312;BME280;63906;55.686;37.532;2024-02-16T08:22:37;101246.63;;;-6.81;81.46
75312;BME280;63906;55.686;37.532;2024-02-16T08:27:38;101222.28;;;-6.97;80.99
75312;BME280;63906;55.686;37.532;2024-02-16T08:32:39;101207.25;;;-6.77;81.39
75312;BME280;63906;55.686;37.532;2024-02-16T08:37:40;101205.91;;;-6.58;79.43
75312;BME280;63906;55.686;37.532;2024-02-16T08:42:41;101197.16;;;-6.51;80.42
75312;BME280;63906;55.686;37.532;2024-02-16T08:47:43;101201.88;;;-6.37;80.41
75312;BME280;63906;55.686;37.532;2024-02-16T08:52:43;101217.16;;;-6.34;80.83
75312;BME280;63906;55.686;37.532;2024-02-16T08:57:45;101206.97;;;-6.35;80.86
75312;BME280;63906;55.686;37.532;2024-02-16T09:02:46;101228.75;;;-6.20;77.55
75312;BME280;63906;55.686;37.532;2024-02-16T09:07:46;101218.03;;;-6.33;79.69
75312;BME280;63906;55.686;37.532;2024-02-16T09:12:47;101234.97;;;-6.29;81.21
75312;BME280;63906;55.686;37.532;2024-02-16T09:17:48;101208.53;;;-6.61;79.49
75312;BME280;63906;55.686;37.532;2024-02-16T09:22:48;101212.13;;;-6.37;81.55
75312;BME280;63906;55.686;37.532;2024-02-16T09:27:49;101219.03;;;-6.39;79.22
75312;BME280;63906;55.686;37.532;2024-02-16T09:32:49;101211.13;;;-6.31;79.93
75312;BME280;63906;55.686;37.532;2024-02-16T09:37:50;101221.53;;;-6.37;78.23
75312;BME280;63906;55.686;37.532;2024-02-16T09:42:50;101200.94;;;-6.34;79.96
75312;BME280;63906;55.686;37.532;2024-02-16T09:47:54;101193.09;;;-6.28;79.97
75312;BME280;63906;55.686;37.532;2024-02-16T09:52:56;101154.22;;;-5.86;79.02
75312;BME280;63906;55.686;37.532;2024-02-16T09:58:01;101167.84;;;-5.31;77.92
75312;BME280;63906;55.686;37.532;2024-02-16T10:03:01;101159.16;;;-5.27;76.98
75312;BME280;63906;55.686;37.532;2024-02-16T10:08:11;101083.78;;;-5.50;78.61
75312;BME280;63906;55.686;37.532;2024-02-16T10:13:12;101171.16;;;-5.28;78.55
75312;BME280;63906;55.686;37.532;2024-02-16T10:18:13;101141.25;;;-5.55;78.10
75312;BME280;63906;55.686;37.532;2024-02-16T10:23:14;101176.28;;;-5.54;79.11
75312;BME280;63906;55.686;37.532;2024-02-16T10:28:15;101173.34;;;-5.95;77.66
75312;BME280;63906;55.686;37.532;2024-02-16T10:33:17;101164.69;;;-5.92;79.36
75312;BME280;63906;55.686;37.532;2024-02-16T10:38:19;101160.81;;;-5.79;79.11
75312;BME280;63906;55.686;37.532;2024-02-16T10:43:21;101098.03;;;-6.19;78.89
75312;BME280;63906;55.686;37.532;2024-02-16T10:48:22;101109.03;;;-5.90;79.70
75312;BME280;63906;55.686;37.532;2024-02-16T10:53:25;101161.63;;;-5.51;79.02
75312;BME280;63906;55.686;37.532;2024-02-16T10:58:27;101124.88;;;-5.78;78.15
75312;BME280;63906;55.686;37.532;2024-02-16T11:03:28;101146.63;;;-5.36;78.83
75312;BME280;63906;55.686;37.532;2024-02-16T11:08:37;101160.00;;;-5.53;77.81
75312;BME280;63906;55.686;37.532;2024-02-16T11:13:38;101082.72;;;-5.69;78.49
75312;BME280;63906;55.686;37.532;2024-02-16T11:18:41;101081.34;;;-5.28;79.41
75312;BME280;63906;55.686;37.532;2024-02-16T11:23:46;101155.28;;;-4.89;76.52
75312;BME280;63906;55.686;37.532;2024-02-16T11:28:48;101151.97;;;-4.93;77.18
75312;BME280;63906;55.686;37.532;2024-02-16T11:33:49;101157.94;;;-4.92;77.68
75312;BME280;63906;55.686;37.532;2024-02-16T11:38:50;101139.06;;;-4.91;78.22
75312;BME280;63906;55.686;37.532;2024-02-16T11:43:59;101164.94;;;-4.72;78.92
75312;BME280;63906;55.686;37.532;2024-02-16T11:49:06;101134.78;;;-4.91;76.57
75312;BME280;63906;55.686;37.532;2024-02-16T11:54:07;101131.56;;;-4.96;75.92
75312;BME280;63906;55.686;37.532;2024-02-16T11:59:09;101112.97;;;-5.04;76.44
75312;BME280;63906;55.686;37.532;2024-02-16T12:04:19;101145.50;;;-5.03;77.46
75312;BME280;63906;55.686;37.532;2024-02-16T12:09:20;101070.59;;;-5.64;75.85
75312;BME280;63906;55.686;37.532;2024-02-16T12:14:22;101163.75;;;-5.12;77.71
75312;BME280;63906;55.686;37.532;2024-02-16T12:19:24;101163.72;;;-5.10;78.86
75312;BME280;63906;55.686;37.532;2024-02-16T12:24:25;101167.09;;;-5.35;78.15
75312;BME280;63906;55.686;37.532;2024-02-16T12:29:25;101136.88;;;-5.52;76.90
75312;BME280;63906;55.686;37.532;2024-02-16T12:34:26;101158.38;;;-5.56;77.80
75312;BME280;63906;55.686;37.532;2024-02-16T12:39:26;101167.47;;;-5.46;76.22
75312;BME280;63906;55.686;37.532;2024-02-16T12:44:27;101157.56;;;-5.31;77.89
75312;BME280;63906;55.686;37.532;2024-02-16T12:49:27;101181.50;;;-5.31;77.97
75312;BME280;63906;55.686;37.532;2024-02-16T12:54:28;101203.63;;;-5.27;78.26
75312;BME280;63906;55.686;37.532;2024-02-16T12:59:28;101063.78;;;-5.90;79.01
75312;BME280;63906;55.686;37.532;2024-02-16T13:04:29;101186.19;;;-5.17;78.84
75312;BME280;63906;55.686;37.532;2024-02-16T13:09:32;101173.81;;;-5.31;79.43
75312;BME280;63906;55.686;37.532;2024-02-16T13:14:33;101200.16;;;-5.26;80.01
75312;BME280;63906;55.686;37.532;2024-02-16T13:19:33;101126.91;;;-5.87;77.87
75312;BME280;63906;55.686;37.532;2024-02-16T13:24:34;101173.00;;;-5.58;78.47
75312;BME280;63906;55.686;37.532;2024-02-16T13:29:35;101178.44;;;-5.42;80.52
75312;BME280;63906;55.686;37.532;2024-02-16T13:34:35;101134.69;;;-5.90;79.85
75312;BME280;63906;55.686;37.532;2024-02-16T13:39:36;101159.25;;;-5.83;80.15
75312;BME280;63906;55.686;37.532;2024-02-16T13:44:39;101191.28;;;-5.69;80.03
75312;BME280;63906;55.686;37.532;2024-02-16T13:49:39;101178.72;;;-5.78;82.27
75312;BME280;63906;55.686;37.532;2024-02-16T13:54:40;101192.78;;;-5.89;80.88
75312;BME280;63906;55.686;37.532;2024-02-16T13:59:42;101197.81;;;-5.86;81.83
75312;BME280;63906;55.686;37.532;2024-02-16T14:04:42;101167.81;;;-6.11;81.63
75312;BME280;63906;55.686;37.532;2024-02-16T14:09:43;101198.50;;;-6.08;81.51
75312;BME280;63906;55.686;37.532;2024-02-16T14:14:43;101140.06;;;-6.54;81.83
75312;BME280;63906;55.686;37.532;2024-02-16T14:19:44;101175.34;;;-6.34;80.07
75312;BME280;63906;55.686;37.532;2024-02-16T14:24:44;101104.78;;;-6.74;81.10
75312;BME280;63906;55.686;37.532;2024-02-16T14:29:45;101113.25;;;-6.72;81.07
75312;BME280;63906;55.686;37.532;2024-02-16T14:34:45;101168.88;;;-6.47;81.26
75312;BME280;63906;55.686;37.532;2024-02-16T14:39:46;101182.84;;;-6.58;80.80
75312;BME280;63906;55.686;37.532;2024-02-16T14:44:47;101143.97;;;-6.72;80.54
75312;BME280;63906;55.686;37.532;2024-02-16T14:49:47;101167.38;;;-6.55;81.05
75312;BME280;63906;55.686;37.532;2024-02-16T14:54:47;101165.78;;;-6.59;80.24
75312;BME280;63906;55.686;37.532;2024-02-16T14:59:48;101166.06;;;-6.68;80.61
75312;BME280;63906;55.686;37.532;2024-02-16T15:04:49;101095.81;;;-7.20;80.12
75312;BME280;63906;55.686;37.532;2024-02-16T15:09:50;101171.25;;;-6.71;80.23
75312;BME280;63906;55.686;37.532;2024-02-16T15:14:50;101176.41;;;-6.72;81.09
75312;BME280;63906;55.686;37.532;2024-02-16T15:19:52;101169.59;;;-7.05;79.89
75312;BME280;63906;55.686;37.532;2024-02-16T15:24:53;101171.66;;;-6.86;81.43
75312;BME280;63906;55.686;37.532;2024-02-16T15:29:53;101164.50;;;-6.73;82.20
75312;BME280;63906;55.686;37.532;2024-02-16T15:34:54;101159.81;;;-6.89;82.10
75312;BME280;63906;55.686;37.532;2024-02-16T15:39:55;101137.13;;;-7.02;81.74
75312;BME280;63906;55.686;37.532;2024-02-16T15:44:57;101128.59;;;-7.01;82.37
75312;BME280;63906;55.686;37.532;2024-02-16T15:49:59;101188.53;;;-6.79;81.63
75312;BME280;63906;55.686;37.532;2024-02-16T15:55:00;101097.09;;;-7.36;82.70
75312;BME280;63906;55.686;37.532;2024-02-16T16:00:01;101145.56;;;-6.99;82.97
75312;BME280;63906;55.686;37.532;2024-02-16T16:05:03;101186.44;;;-6.65;82.56
75312;BME280;63906;55.686;37.532;2024-02-16T16:10:04;101122.69;;;-7.05;80.58
75312;BME280;63906;55.686;37.532;2024-02-16T16:15:05;101182.78;;;-6.87;81.88
75312;BME280;63906;55.686;37.532;2024-02-16T16:20:06;101130.91;;;-7.25;81.67
75312;BME280;63906;55.686;37.532;2024-02-16T16:25:08;101201.78;;;-6.63;83.10
75312;BME280;63906;55.686;37.532;2024-02-16T16:30:09;101171.41;;;-6.77;83.08
75312;BME280;63906;55.686;37.532;2024-02-16T16:35:09;101171.50;;;-6.80;82.76
75312;BME280;63906;55.686;37.532;2024-02-16T16:40:10;101190.53;;;-6.90;82.08
75312;BME280;63906;55.686;37.532;2024-02-16T16:45:11;101132.75;;;-7.30;81.43
75312;BME280;63906;55.686;37.532;2024-02-16T16:50:16;101219.72;;;-6.65;82.47
75312;BME280;63906;55.686;37.532;2024-02-16T16:55:16;101030.34;;;-7.92;81.05
75312;BME280;63906;55.686;37.532;2024-02-16T17:00:17;101196.06;;;-6.73;82.30
75312;BME280;63906;55.686;37.532;2024-02-16T17:05:18;101151.78;;;-7.08;80.96
75312;BME280;63906;55.686;37.532;2024-02-16T17:10:18;101190.38;;;-6.84;81.53
75312;BME280;63906;55.686;37.532;2024-02-16T17:15:19;101198.94;;;-6.85;81.50
75312;BME280;63906;55.686;37.532;2024-02-16T17:20:20;101172.09;;;-7.01;81.21
75312;BME280;63906;55.686;37.532;2024-02-16T17:25:24;101194.06;;;-6.94;82.20
75312;BME280;63906;55.686;37.532;2024-02-16T17:30:24;101136.13;;;-7.29;82.15
75312;BME280;63906;55.686;37.532;2024-02-16T17:35:26;101105.22;;;-7.54;81.95
75312;BME280;63906;55.686;37.532;2024-02-16T17:40:27;101103.66;;;-7.60;81.24
75312;BME280;63906;55.686;37.532;2024-02-16T17:45:27;101177.88;;;-6.95;81.79
75312;BME280;63906;55.686;37.532;2024-02-16T17:50:28;101192.56;;;-7.01;79.46
75312;BME280;63906;55.686;37.532;2024-02-16T17:55:28;101201.59;;;-6.88;80.76
75312;BME280;63906;55.686;37.532;2024-02-16T18:00:29;101159.63;;;-7.15;81.44
75312;BME280;63906;55.686;37.532;2024-02-16T18:05:29;101124.28;;;-7.34;81.62
75312;BME280;63906;55.686;37.532;2024-02-16T18:10:30;101200.31;;;-7.05;80.59
75312;BME280;63906;55.686;37.532;2024-02-16T18:15:30;101181.50;;;-7.03;81.30
75312;BME280;63906;55.686;37.532;2024-02-16T18:20:32;101174.75;;;-7.06;82.01
75312;BME280;63906;55.686;37.532;2024-02-16T18:25:33;101160.41;;;-7.12;81.46
75312;BME280;63906;55.686;37.532;2024-02-16T18:30:33;101185.09;;;-7.11;80.95
75312;BME280;63906;55.686;37.532;2024-02-16T18:35:34;101184.19;;;-7.08;81.71
75312;BME280;63906;55.686;37.532;2024-02-16T18:40:34;101092.84;;;-7.37;82.90
75312;BME280;63906;55.686;37.532;2024-02-16T18:45:35;101168.03;;;-7.10;82.21
75312;BME280;63906;55.686;37.532;2024-02-16T18:50:36;101105.66;;;-7.37;82.54
75312;BME280;63906;55.686;37.532;2024-02-16T18:55:37;101182.69;;;-6.83;82.71
75312;BME280;63906;55.686;37.532;2024-02-16T19:00:44;101182.50;;;-7.08;80.89
75312;BME280;63906;55.686;37.532;2024-02-16T19:05:45;101162.09;;;-7.11;81.81
75312;BME280;63906;55.686;37.532;2024-02-16T19:10:46;101159.78;;;-7.21;81.57
75312;BME280;63906;55.686;37.532;2024-02-16T19:15:46;101167.03;;;-7.05;81.99
75312;BME280;63906;55.686;37.532;2024-02-16T19:20:47;101192.06;;;-6.83;82.69
75312;BME280;63906;55.686;37.532;2024-02-16T19:25:50;101123.41;;;-7.31;82.11
75312;BME280;63906;55.686;37.532;2024-02-16T19:30:50;101158.25;;;-6.94;81.96
75312;BME280;63906;55.686;37.532;2024-02-16T19:35:51;101150.75;;;-7.02;82.33
75312;BME280;63906;55.686;37.532;2024-02-16T19:40:52;101168.50;;;-6.96;82.26
75312;BME280;63906;55.686;37.532;2024-02-16T19:45:53;101132.09;;;-7.06;82.74
75312;BME280;63906;55.686;37.532;2024-02-16T19:50:53;101168.00;;;-6.76;82.54
75312;BME280;63906;55.686;37.532;2024-02-16T19:55:54;101099.78;;;-7.10;83.07
75312;BME280;63906;55.686;37.532;2024-02-16T20:00:54;101126.38;;;-6.84;81.87
75312;BME280;63906;55.686;37.532;2024-02-16T20:05:55;101063.31;;;-7.49;83.06
75312;BME280;63906;55.686;37.532;2024-02-16T20:10:56;101144.31;;;-7.49;81.65
75312;BME280;63906;55.686;37.532;2024-02-16T20:15:57;101117.88;;;-7.48;81.90
75312;BME280;63906;55.686;37.532;2024-02-16T20:20:57;101144.16;;;-7.11;83.14
75312;BME280;63906;55.686;37.532;2024-02-16T20:25:58;101079.75;;;-7.25;83.39
75312;BME280;63906;55.686;37.532;2024-02-16T20:30:58;101124.75;;;-7.18;81.94
75312;BME280;63906;55.686;37.532;2024-02-16T20:36:04;101084.34;;;-7.38;82.09
75312;BME280;63906;55.686;37.532;2024-02-16T20:41:05;101134.00;;;-7.46;81.44
75312;BME280;63906;55.686;37.532;2024-02-16T20:46:06;101115.19;;;-7.44;81.85
75312;BME280;63906;55.686;37.532;2024-02-16T20:51:07;101115.16;;;-7.42;82.24
75312;BME280;63906;55.686;37.532;2024-02-16T20:56:08;101108.03;;;-7.31;81.49
75312;BME280;63906;55.686;37.532;2024-02-16T21:01:10;101122.19;;;-7.50;81.75
75312;BME280;63906;55.686;37.532;2024-02-16T21:06:11;101022.75;;;-7.95;82.44
75312;BME280;63906;55.686;37.532;2024-02-16T21:11:12;101108.09;;;-7.33;82.06
75312;BME280;63906;55.686;37.532;2024-02-16T21:16:12;101101.13;;;-7.27;82.02
75312;BME280;63906;55.686;37.532;2024-02-16T21:21:13;101090.53;;;-7.14;81.68
75312;BME280;63906;55.686;37.532;2024-02-16T21:26:14;101082.72;;;-7.09;82.47
75312;BME280;63906;55.686;37.532;2024-02-16T21:31:14;101089.59;;;-7.11;81.11
75312;BME280;63906;55.686;37.532;2024-02-16T21:36:15;101093.84;;;-7.10;81.07
75312;BME280;63906;55.686;37.532;2024-02-16T21:41:20;101085.50;;;-7.17;81.45
75312;BME280;63906;55.686;37.532;2024-02-16T21:46:34;101041.09;;;-7.47;81.27
75312;BME280;63906;55.686;37.532;2024-02-16T21:51:38;101099.91;;;-7.14;82.50
75312;BME280;63906;55.686;37.532;2024-02-16T21:56:38;101116.91;;;-7.12;82.93
75312;BME280;63906;55.686;37.532;2024-02-16T22:01:39;101082.63;;;-7.37;82.78
75312;BME280;63906;55.686;37.532;2024-02-16T22:06:39;101046.16;;;-7.44;82.75
75312;BME280;63906;55.686;37.532;2024-02-16T22:11:40;101081.75;;;-7.36;80.49
75312;BME280;63906;55.686;37.532;2024-02-16T22:16:40;101091.03;;;-7.32;82.58
75312;BME280;63906;55.686;37.532;2024-02-16T22:21:41;101102.50;;;-7.16;82.17
75312;BME280;63906;55.686;37.532;2024-02-16T22:26:44;101082.47;;;-7.31;81.55
75312;BME280;63906;55.686;37.532;2024-02-16T22:31:45;101096.41;;;-7.10;82.20
75312;BME280;63906;55.686;37.532;2024-02-16T22:36:45;101033.13;;;-7.67;82.21
75312;BME280;63906;55.686;37.532;2024-02-16T22:41:46;101001.00;;;-7.77;82.38
75312;BME280;63906;55.686;37.532;2024-02-16T22:46:47;101082.69;;;-7.39;81.31
75312;BME280;63906;55.686;37.532;2024-02-16T22:51:47;100990.09;;;-7.84;81.82
75312;BME280;63906;55.686;37.532;2024-02-16T22:56:48;100968.16;;;-7.91;81.89
75312;BME280;63906;55.686;37.532;2024-02-16T23:01:48;101035.75;;;-7.38;81.24
75312;BME280;63906;55.686;37.532;2024-02-16T23:06:49;101038.50;;;-7.45;81.62
75312;BME280;63906;55.686;37.532;2024-02-16T23:11:49;101060.84;;;-7.19;82.40
75312;BME280;63906;55.686;37.532;2024-02-16T23:16:50;101057.00;;;-7.36;81.85
75312;BME280;63906;55.686;37.532;2024-02-16T23:21:50;101044.56;;;-7.17;82.70
75312;BME280;63906;55.686;37.532;2024-02-16T23:26:50;100958.72;;;-7.56;82.16
75312;BME280;63906;55.686;37.532;2024-02-16T23:31:51;101037.59;;;-7.12;82.09
75312;BME280;63906;55.686;37.532;2024-02-16T23:36:52;101045.22;;;-7.10;81.86
75312;BME280;63906;55.686;37.532;2024-02-16T23:41:52;101004.22;;;-7.07;82.59
75312;BME280;63906;55.686;37.532;2024-02-16T23:46:53;100997.06;;;-7.27;82.75
75312;BME280;63906;55.686;37.532;2024-02-16T23:51:53;100921.50;;;-7.67;82.38
75312;BME280;63906;55.686;37.532;2024-02-16T23:56:54;100898.59;;;-7.71;82.73
